KJOT/JOT METAR and TAF weather

Enter ICAO airport designator
Station Type Date Time Source
KJOT METAR 2022/08/12 15:15 UTC NOAA

KJOT 121515Z AUTO 00000KT 10SM CLR 23/15 A3028 RMK AO2 T02250154


Station Type Date Time Source
KJOT Decoded METAR 2022/08/12 15:15 UTC NOAA

Joliet, Joliet Regional Airport, IL, United States (KJOT) 41-31-05N 088-10-31W
Aug 12, 2022 - 11:15 AM EDT / 2022.08.12 1515 UTC
Wind: Calm:0
Visibility: 10 mile(s):0
Sky conditions: clear
Temperature: 72.5 F (22.5 C)
Dew Point: 59.7 F (15.4 C)
Relative Humidity: 64%
Pressure (altimeter): 30.28 in. Hg (1025 hPa)
ob: KJOT 121515Z AUTO 00000KT 10SM CLR 23/15 A3028 RMK AO2 T02250154
cycle: 15

Station Type Date Time Source
KJOT TAF UTC NOAA

Error!

Example: see airport list